createdAt,value
2022-11-25T00:01:07.588Z,4.56
2022-11-25T00:03:36.526Z,4.45
2022-11-25T00:06:12.700Z,4.37
2022-11-25T00:08:41.001Z,4.25
2022-11-25T00:11:09.207Z,4.16
2022-11-25T00:13:37.472Z,4.07
2022-11-25T00:16:08.788Z,3.98
2022-11-25T00:18:37.055Z,3.92
2022-11-25T00:21:07.124Z,3.81
2022-11-25T00:23:35.282Z,3.69
2022-11-25T00:26:08.567Z,3.69
2022-11-25T00:28:36.868Z,3.65
2022-11-25T00:31:11.220Z,3.66
2022-11-25T00:33:39.475Z,3.68
2022-11-25T00:36:16.446Z,3.60
2022-11-25T00:38:44.846Z,3.56
2022-11-25T00:41:30.886Z,3.55
2022-11-25T00:44:16.087Z,3.46
2022-11-25T00:46:45.709Z,3.40
2022-11-25T00:49:14.251Z,3.33
2022-11-25T00:51:42.499Z,3.30
2022-11-25T00:54:10.940Z,3.28
2022-11-25T00:56:39.218Z,3.18
2022-11-25T00:59:07.859Z,3.08
2022-11-25T01:01:36.283Z,3.04
2022-11-25T01:04:06.350Z,3.09
2022-11-25T01:06:34.574Z,3.03
2022-11-25T01:09:02.897Z,3.17
2022-11-25T01:11:31.469Z,3.24
2022-11-25T01:14:01.608Z,3.27
2022-11-25T01:16:30.508Z,3.31
2022-11-25T01:18:59.567Z,3.31
2022-11-25T01:21:29.910Z,3.30
2022-11-25T01:23:58.200Z,3.29
2022-11-25T01:26:26.490Z,3.30
2022-11-25T01:28:55.860Z,3.33
2022-11-25T01:31:25.038Z,3.27
2022-11-25T01:33:56.023Z,3.23
2022-11-25T01:36:24.260Z,3.14
2022-11-25T01:38:54.554Z,3.11
2022-11-25T01:41:24.375Z,3.07
2022-11-25T01:44:10.209Z,3.11
2022-11-25T01:46:44.131Z,3.07
2022-11-25T01:49:14.080Z,3.09
2022-11-25T01:51:43.792Z,3.05
2022-11-25T01:54:15.088Z,2.93
2022-11-25T01:56:45.992Z,2.86
2022-11-25T01:59:14.299Z,2.78
2022-11-25T02:01:42.591Z,2.65
2022-11-25T02:04:10.865Z,2.54
2022-11-25T02:06:41.851Z,2.43
2022-11-25T02:09:10.408Z,2.33
2022-11-25T02:11:41.320Z,2.34
2022-11-25T02:14:09.570Z,2.34
2022-11-25T02:16:37.869Z,2.34
2022-11-25T02:19:06.194Z,2.33
2022-11-25T02:21:38.236Z,2.28
2022-11-25T02:24:09.137Z,2.26
2022-11-25T02:26:38.779Z,2.20
2022-11-25T02:29:08.869Z,2.12
2022-11-25T02:31:37.311Z,2.03
2022-11-25T02:34:05.691Z,1.96
2022-11-25T02:36:36.250Z,1.89
2022-11-25T02:39:04.567Z,1.82
2022-11-25T02:41:37.245Z,1.75
2022-11-25T02:44:08.794Z,1.74
2022-11-25T02:46:37.058Z,1.68
2022-11-25T02:49:09.357Z,1.63
2022-11-25T02:51:38.581Z,1.66
2022-11-25T02:54:06.881Z,1.62
2022-11-25T02:56:36.094Z,1.57
2022-11-25T02:59:04.576Z,1.56
2022-11-25T03:01:35.197Z,1.51
2022-11-25T03:04:06.948Z,1.48
2022-11-25T03:06:35.174Z,1.41
2022-11-25T03:09:03.409Z,1.34
2022-11-25T03:12:01.049Z,1.34
2022-11-25T03:14:29.915Z,1.35
2022-11-25T03:16:59.604Z,1.33
2022-11-25T03:19:29.305Z,1.28
2022-11-25T03:21:57.551Z,1.23
2022-11-25T03:24:25.802Z,1.19
2022-11-25T03:26:54.156Z,1.14
2022-11-25T03:29:22.412Z,1.08
2022-11-25T03:31:51.663Z,1.04
2022-11-25T03:34:23.238Z,1.01
2022-11-25T03:36:51.887Z,0.97
2022-11-25T03:39:20.326Z,0.94
2022-11-25T03:41:48.588Z,0.95
2022-11-25T03:44:17.264Z,0.95
2022-11-25T03:46:45.572Z,0.94
2022-11-25T03:49:13.838Z,0.92
2022-11-25T03:51:44.095Z,0.90
2022-11-25T03:54:12.547Z,0.80
2022-11-25T03:57:00.709Z,0.77
2022-11-25T03:59:31.081Z,0.77
2022-11-25T04:01:59.324Z,0.76
2022-11-25T04:04:28.210Z,0.78
2022-11-25T04:06:57.827Z,0.77
2022-11-25T04:09:26.459Z,0.72
2022-11-25T04:12:14.229Z,0.67
2022-11-25T04:14:53.985Z,0.65
2022-11-25T04:17:22.227Z,0.61
2022-11-25T04:19:50.489Z,0.57
2022-11-25T04:22:20.550Z,0.58
2022-11-25T04:24:50.359Z,0.57
2022-11-25T04:27:24.723Z,0.55
2022-11-25T04:29:54.187Z,0.52
2022-11-25T04:32:23.447Z,0.52
2022-11-25T04:34:51.664Z,0.58
2022-11-25T04:37:22.160Z,0.58
2022-11-25T04:39:50.767Z,0.55
2022-11-25T04:42:34.747Z,0.55
2022-11-25T04:45:22.551Z,0.56
2022-11-25T04:47:51.873Z,0.53
2022-11-25T04:50:21.801Z,0.48
2022-11-25T04:53:01.471Z,0.47
2022-11-25T04:55:29.889Z,0.45
2022-11-25T04:57:59.307Z,0.50
2022-11-25T05:00:26.904Z,0.47
2022-11-25T05:02:55.368Z,0.48
2022-11-25T05:05:25.231Z,0.47
2022-11-25T05:07:53.559Z,0.48
2022-11-25T05:10:23.750Z,0.49
2022-11-25T05:12:52.400Z,0.50
2022-11-25T05:15:23.186Z,0.48
2022-11-25T05:17:51.427Z,0.46
2022-11-25T05:20:31.277Z,0.42
2022-11-25T05:22:59.696Z,0.32
2022-11-25T05:25:29.595Z,0.28
2022-11-25T05:28:16.248Z,0.24
2022-11-25T05:30:45.403Z,0.19
2022-11-25T05:33:14.092Z,0.20
2022-11-25T05:35:42.444Z,0.19
2022-11-25T05:38:10.634Z,0.13
2022-11-25T05:40:40.856Z,0.09
2022-11-25T05:43:13.871Z,0.15
2022-11-25T05:45:42.823Z,0.41
2022-11-25T05:48:13.158Z,0.93
2022-11-25T05:50:41.465Z,1.47
2022-11-25T05:53:21.503Z,1.70
2022-11-25T05:55:57.513Z,1.83
2022-11-25T05:58:43.876Z,1.96
2022-11-25T06:01:13.545Z,1.93
2022-11-25T06:03:41.905Z,1.95
2022-11-25T06:06:11.600Z,2.00
2022-11-25T06:08:40.369Z,1.87
2022-11-25T06:11:11.911Z,1.56
2022-11-25T06:13:40.429Z,1.41
2022-11-25T06:16:10.412Z,1.31
2022-11-25T06:18:39.303Z,1.28
2022-11-25T06:21:09.620Z,1.31
2022-11-25T06:23:38.567Z,1.40
2022-11-25T06:26:07.658Z,1.47
2022-11-25T06:28:38.794Z,1.47
2022-11-25T06:31:08.303Z,1.52
2022-11-25T06:33:47.612Z,1.48
2022-11-25T06:36:18.055Z,1.47
2022-11-25T06:38:46.520Z,1.45
2022-11-25T06:41:14.800Z,1.44
2022-11-25T06:43:44.483Z,1.43
2022-11-25T06:46:13.893Z,1.46
2022-11-25T06:48:42.233Z,1.46
2022-11-25T06:51:12.222Z,1.48
2022-11-25T06:53:40.547Z,1.55
2022-11-25T06:56:10.526Z,1.52
2022-11-25T06:58:38.757Z,1.51
2022-11-25T07:01:09.228Z,1.51
2022-11-25T07:03:37.544Z,1.48
2022-11-25T07:06:05.924Z,1.47
2022-11-25T07:08:34.650Z,1.44
2022-11-25T07:11:06.770Z,1.48
2022-11-25T07:13:34.992Z,1.49
2022-11-25T07:16:04.120Z,1.51
2022-11-25T07:18:34.419Z,1.55
2022-11-25T07:21:07.140Z,1.58
2022-11-25T07:23:35.639Z,1.62
2022-11-25T07:26:04.996Z,1.65
2022-11-25T07:28:33.387Z,1.66
2022-11-25T07:31:23.194Z,1.67
2022-11-25T07:33:54.068Z,1.66
2022-11-25T07:36:22.553Z,1.69
2022-11-25T07:38:50.796Z,1.72
2022-11-25T07:41:20.228Z,1.72
2022-11-25T07:43:48.999Z,1.76
2022-11-25T07:46:26.553Z,1.83
2022-11-25T07:48:57.601Z,1.84
2022-11-25T07:51:27.069Z,1.81
2022-11-25T07:53:55.493Z,1.79
2022-11-25T07:56:23.856Z,1.81
2022-11-25T07:58:52.160Z,1.83
2022-11-25T08:01:20.562Z,1.90
2022-11-25T08:03:49.700Z,1.97
2022-11-25T08:06:20.622Z,1.99
2022-11-25T08:08:48.932Z,2.13
2022-11-25T08:11:18.302Z,2.23
2022-11-25T08:13:46.616Z,2.26
2022-11-25T08:16:15.987Z,2.41
2022-11-25T08:18:44.545Z,2.54
2022-11-25T08:21:14.312Z,2.64
2022-11-25T08:23:44.177Z,2.78
2022-11-25T08:26:13.930Z,2.90
2022-11-25T08:28:42.467Z,3.01
2022-11-25T08:31:12.125Z,3.08
2022-11-25T08:33:40.421Z,3.23
2022-11-25T08:36:09.532Z,3.28
2022-11-25T08:38:37.946Z,3.41
2022-11-25T08:41:12.351Z,3.52
2022-11-25T08:43:40.631Z,3.55
2022-11-25T08:46:10.513Z,3.60
2022-11-25T08:48:38.805Z,3.63
2022-11-25T08:51:09.536Z,3.75
2022-11-25T08:53:38.271Z,3.77
2022-11-25T08:56:06.867Z,3.87
2022-11-25T08:58:36.553Z,4.17
2022-11-25T09:01:05.086Z,4.33
2022-11-25T09:03:33.806Z,4.46
2022-11-25T09:06:02.233Z,4.50
2022-11-25T09:08:31.288Z,4.56
2022-11-25T09:10:59.802Z,4.59
2022-11-25T09:13:28.359Z,4.58
2022-11-25T09:15:58.043Z,4.73
2022-11-25T09:18:26.586Z,4.82
2022-11-25T09:20:54.837Z,4.94
2022-11-25T09:23:23.376Z,5.01
2022-11-25T09:25:54.856Z,5.03
2022-11-25T09:28:23.131Z,5.03
2022-11-25T09:30:51.368Z,5.02
2022-11-25T09:33:21.151Z,5.04
2022-11-25T09:35:50.406Z,5.17
2022-11-25T09:38:18.692Z,5.30
2022-11-25T09:40:50.483Z,5.42
2022-11-25T09:43:39.509Z,5.55
2022-11-25T09:46:28.476Z,5.55
2022-11-25T09:49:00.786Z,5.45
2022-11-25T09:51:32.363Z,5.38
2022-11-25T09:54:05.148Z,5.34
2022-11-25T09:56:35.771Z,5.31
2022-11-25T09:59:06.563Z,5.28
2022-11-25T10:01:36.500Z,5.36
2022-11-25T10:04:07.063Z,5.46
2022-11-25T10:06:37.568Z,5.55
2022-11-25T10:09:11.721Z,5.64
2022-11-25T10:11:47.873Z,5.70
2022-11-25T10:14:19.612Z,5.81
2022-11-25T10:16:51.691Z,5.93
2022-11-25T10:19:26.200Z,5.94
2022-11-25T10:21:54.424Z,5.94
2022-11-25T10:24:22.662Z,5.93
2022-11-25T10:26:53.653Z,5.87
2022-11-25T10:29:25.135Z,5.86
2022-11-25T10:31:55.326Z,5.81
2022-11-25T10:34:30.240Z,5.84
2022-11-25T10:36:58.597Z,5.81
2022-11-25T10:39:28.286Z,5.82
2022-11-25T10:41:59.498Z,5.83
2022-11-25T10:44:28.359Z,5.79
2022-11-25T10:47:18.610Z,5.82
2022-11-25T10:49:52.933Z,5.85
2022-11-25T10:52:22.347Z,5.86
2022-11-25T10:54:57.332Z,5.90
2022-11-25T10:57:28.915Z,5.96
2022-11-25T10:59:58.103Z,6.03
2022-11-25T11:02:27.430Z,6.23
2022-11-25T11:04:59.178Z,6.43
2022-11-25T11:07:28.148Z,6.46
2022-11-25T11:09:56.392Z,6.54
2022-11-25T11:12:25.609Z,6.58
2022-11-25T11:14:54.080Z,6.59
2022-11-25T11:17:36.445Z,6.56
2022-11-25T11:20:16.818Z,6.57
2022-11-25T11:22:50.565Z,6.61
2022-11-25T11:25:30.860Z,6.69
2022-11-25T11:27:59.315Z,6.73
2022-11-25T11:30:28.757Z,6.80
2022-11-25T11:33:02.678Z,6.84
2022-11-25T11:35:51.555Z,7.07
2022-11-25T11:38:33.477Z,7.31
2022-11-25T11:41:07.630Z,7.58
2022-11-25T11:43:56.580Z,7.55
2022-11-25T11:46:32.869Z,7.40
2022-11-25T11:49:07.021Z,7.36
2022-11-25T11:51:40.104Z,7.29
2022-11-25T11:54:09.505Z,7.27
2022-11-25T11:56:40.207Z,7.36
2022-11-25T11:59:36.125Z,7.48
2022-11-25T12:02:15.370Z,7.52
2022-11-25T12:04:45.559Z,7.45
2022-11-25T12:07:19.069Z,7.35
2022-11-25T12:09:50.243Z,7.22
2022-11-25T12:12:20.407Z,7.14
2022-11-25T12:14:49.214Z,7.07
2022-11-25T12:17:19.342Z,7.05
2022-11-25T12:19:53.558Z,7.05
2022-11-25T12:22:25.946Z,7.10
2022-11-25T12:24:57.080Z,7.07
2022-11-25T12:27:27.011Z,6.97
2022-11-25T12:29:58.404Z,6.90
2022-11-25T12:32:52.002Z,6.81
2022-11-25T12:35:24.032Z,6.74
2022-11-25T12:37:58.084Z,6.70
2022-11-25T12:40:28.592Z,6.69
2022-11-25T12:42:58.206Z,6.71
2022-11-25T12:45:27.063Z,6.74
2022-11-25T12:47:55.359Z,6.77
2022-11-25T12:50:27.011Z,6.74
2022-11-25T12:52:59.972Z,6.74
2022-11-25T12:55:28.962Z,6.74
2022-11-25T12:58:19.832Z,6.74
2022-11-25T13:01:19.054Z,6.77
2022-11-25T13:04:16.530Z,6.75
2022-11-25T13:07:07.165Z,6.75
2022-11-25T13:09:53.958Z,6.75
2022-11-25T13:12:29.362Z,6.75
2022-11-25T13:15:14.745Z,6.76
2022-11-25T13:17:43.733Z,6.79
2022-11-25T13:20:51.992Z,6.81
2022-11-25T13:23:27.609Z,6.75
2022-11-25T13:26:39.452Z,6.73
2022-11-25T13:29:26.713Z,6.71
2022-11-25T13:31:59.588Z,6.71
2022-11-25T13:34:29.433Z,6.67
2022-11-25T13:36:57.852Z,6.62
2022-11-25T13:39:33.207Z,6.60
2022-11-25T13:42:04.291Z,6.54
2022-11-25T13:44:35.271Z,6.52
2022-11-25T13:47:30.079Z,6.49
2022-11-25T13:49:59.148Z,6.43
2022-11-25T13:52:48.019Z,6.40
2022-11-25T13:55:25.801Z,6.40
2022-11-25T13:58:15.582Z,6.37
2022-11-25T14:01:04.661Z,6.36
2022-11-25T14:03:54.911Z,6.34
2022-11-25T14:06:40.793Z,6.34
2022-11-25T14:09:15.831Z,6.33
2022-11-25T14:12:07.714Z,6.32
2022-11-25T14:15:11.964Z,6.31
2022-11-25T14:18:00.146Z,6.30
2022-11-25T14:20:37.037Z,6.29
2022-11-25T14:23:22.053Z,6.30
2022-11-25T14:25:51.791Z,6.32
2022-11-25T14:28:27.157Z,6.31
2022-11-25T14:31:00.967Z,6.29
2022-11-25T14:33:32.716Z,6.30
2022-11-25T14:36:03.027Z,6.27
2022-11-25T14:38:33.855Z,6.27
2022-11-25T14:41:05.367Z,6.27
2022-11-25T14:43:38.196Z,6.22
2022-11-25T14:46:15.958Z,6.18
2022-11-25T14:48:44.382Z,6.16
2022-11-25T14:51:14.436Z,6.11
2022-11-25T14:53:47.932Z,6.06
2022-11-25T14:56:18.449Z,6.02
2022-11-25T14:58:48.121Z,5.98
2022-11-25T15:01:20.431Z,5.96
2022-11-25T15:03:48.907Z,5.95
2022-11-25T15:06:19.949Z,5.93
2022-11-25T15:08:55.464Z,5.92
2022-11-25T15:11:25.098Z,5.86
2022-11-25T15:13:54.964Z,5.81
2022-11-25T15:16:26.524Z,5.73
2022-11-25T15:18:56.012Z,5.66
2022-11-25T15:21:26.027Z,5.60
2022-11-25T15:23:55.594Z,5.56
2022-11-25T15:26:24.846Z,5.51
2022-11-25T15:28:55.344Z,5.45
2022-11-25T15:31:27.702Z,5.41
2022-11-25T15:33:57.913Z,5.39
2022-11-25T15:36:26.155Z,5.36
2022-11-25T15:38:54.709Z,5.34
2022-11-25T15:41:31.034Z,5.33
2022-11-25T15:43:59.772Z,5.32
2022-11-25T15:46:29.703Z,5.30
2022-11-25T15:48:59.196Z,5.29
2022-11-25T15:51:35.445Z,5.30
2022-11-25T15:54:06.516Z,5.29
2022-11-25T15:56:36.008Z,5.26
2022-11-25T15:59:04.354Z,5.23
2022-11-25T16:01:34.282Z,5.23
2022-11-25T16:04:13.627Z,5.23
2022-11-25T16:06:54.152Z,5.23
2022-11-25T16:09:23.390Z,5.23
2022-11-25T16:11:51.582Z,5.22
2022-11-25T16:14:24.224Z,5.21
2022-11-25T16:17:02.422Z,5.19
2022-11-25T16:19:36.507Z,5.18
2022-11-25T16:22:06.121Z,5.17
2022-11-25T16:24:39.757Z,5.16
2022-11-25T16:27:14.899Z,5.15
2022-11-25T16:29:50.225Z,5.13
2022-11-25T16:32:20.678Z,5.11
2022-11-25T16:34:48.948Z,5.10
2022-11-25T16:37:17.286Z,5.11
2022-11-25T16:39:45.488Z,5.10
2022-11-25T16:42:18.285Z,5.09
2022-11-25T16:44:49.504Z,5.08
2022-11-25T16:47:19.716Z,5.09
2022-11-25T16:49:48.034Z,5.08
2022-11-25T16:52:16.325Z,5.08
2022-11-25T16:54:44.522Z,5.07
2022-11-25T16:57:17.896Z,5.07
2022-11-25T16:59:46.122Z,5.06
2022-11-25T17:02:16.161Z,5.07
2022-11-25T17:04:46.006Z,5.07
2022-11-25T17:07:32.196Z,5.07
2022-11-25T17:10:01.312Z,5.05
2022-11-25T17:12:31.667Z,5.05
2022-11-25T17:15:00.550Z,5.05
2022-11-25T17:17:28.998Z,5.03
2022-11-25T17:19:58.674Z,5.04
2022-11-25T17:22:28.083Z,5.05
2022-11-25T17:24:58.658Z,5.03
2022-11-25T17:27:28.762Z,5.02
2022-11-25T17:29:56.959Z,5.03
2022-11-25T17:32:25.519Z,5.04
2022-11-25T17:34:53.897Z,5.03
2022-11-25T17:37:24.296Z,5.05
2022-11-25T17:39:53.670Z,5.04
2022-11-25T17:42:25.028Z,5.05
2022-11-25T17:44:54.464Z,5.05
2022-11-25T17:47:22.819Z,5.05
2022-11-25T17:49:52.126Z,5.05
2022-11-25T17:52:20.628Z,5.05
2022-11-25T17:54:50.294Z,5.05
2022-11-25T17:57:20.993Z,5.04
2022-11-25T17:59:49.192Z,5.04
2022-11-25T18:02:18.399Z,5.03
2022-11-25T18:04:46.648Z,5.05
2022-11-25T18:07:15.217Z,5.05
2022-11-25T18:09:44.535Z,5.07
2022-11-25T18:12:18.190Z,5.07
2022-11-25T18:14:46.428Z,5.05
2022-11-25T18:17:16.804Z,5.04
2022-11-25T18:19:48.562Z,5.05
2022-11-25T18:22:20.675Z,5.05
2022-11-25T18:24:48.924Z,5.05
2022-11-25T18:27:21.732Z,5.04
2022-11-25T18:29:49.931Z,5.04
2022-11-25T18:32:18.557Z,5.04
2022-11-25T18:34:47.381Z,5.04
2022-11-25T18:37:15.589Z,5.03
2022-11-25T18:39:43.791Z,5.02
2022-11-25T18:42:21.068Z,5.02
2022-11-25T18:44:49.307Z,5.02
2022-11-25T18:47:17.512Z,5.02
2022-11-25T18:49:50.984Z,5.02
2022-11-25T18:52:22.293Z,5.03
2022-11-25T18:54:50.619Z,5.03
2022-11-25T18:57:21.403Z,5.02
2022-11-25T19:00:10.345Z,5.03
2022-11-25T19:02:38.130Z,5.04
2022-11-25T19:05:20.076Z,5.04
2022-11-25T19:07:48.505Z,5.03
2022-11-25T19:10:17.415Z,5.04
2022-11-25T19:12:48.518Z,5.03
2022-11-25T19:15:18.047Z,5.01
2022-11-25T19:17:49.805Z,5.00
2022-11-25T19:20:19.518Z,5.03
2022-11-25T19:22:47.700Z,5.00
2022-11-25T19:25:16.151Z,5.01
2022-11-25T19:27:48.172Z,5.03
2022-11-25T19:30:17.622Z,5.04
2022-11-25T19:32:46.425Z,5.02
2022-11-25T19:35:16.337Z,5.03
2022-11-25T19:37:44.547Z,5.02
2022-11-25T19:40:16.731Z,5.04
2022-11-25T19:42:46.053Z,5.03
2022-11-25T19:45:16.200Z,5.05
2022-11-25T19:47:44.647Z,5.04
2022-11-25T19:50:16.374Z,5.05
2022-11-25T19:52:44.598Z,5.05
2022-11-25T19:55:14.973Z,5.06
2022-11-25T19:57:44.507Z,5.05
2022-11-25T20:00:14.175Z,5.06
2022-11-25T20:02:43.817Z,5.06
2022-11-25T20:05:12.851Z,5.06
2022-11-25T20:07:41.142Z,5.05
2022-11-25T20:10:18.130Z,5.07
2022-11-25T20:12:46.313Z,5.07
2022-11-25T20:15:14.579Z,5.07
2022-11-25T20:17:45.965Z,5.07
2022-11-25T20:20:16.395Z,5.10
2022-11-25T20:22:45.842Z,5.10
2022-11-25T20:25:15.484Z,5.10
2022-11-25T20:27:43.690Z,5.09
2022-11-25T20:30:17.160Z,5.09
2022-11-25T20:32:46.769Z,5.08
2022-11-25T20:35:15.199Z,5.08
2022-11-25T20:37:54.095Z,5.10
2022-11-25T20:40:23.187Z,5.09
2022-11-25T20:42:51.417Z,5.09
2022-11-25T20:45:20.898Z,5.10
2022-11-25T20:47:51.095Z,5.12
2022-11-25T20:50:19.736Z,5.10
2022-11-25T20:52:48.354Z,5.09
2022-11-25T20:55:17.976Z,5.08
2022-11-25T20:57:46.197Z,5.07
2022-11-25T21:00:17.037Z,5.08
2022-11-25T21:02:45.361Z,5.07
2022-11-25T21:05:15.033Z,5.07
2022-11-25T21:07:43.501Z,5.06
2022-11-25T21:10:23.443Z,5.04
2022-11-25T21:12:51.750Z,5.04
2022-11-25T21:15:21.104Z,5.03
2022-11-25T21:17:49.287Z,5.04
2022-11-25T21:20:19.468Z,5.01
2022-11-25T21:22:49.107Z,5.02
2022-11-25T21:25:19.208Z,5.03
2022-11-25T21:27:47.955Z,5.02
2022-11-25T21:30:20.412Z,5.02
2022-11-25T21:32:48.749Z,5.02
2022-11-25T21:35:18.611Z,5.03
2022-11-25T21:37:46.860Z,5.04
2022-11-25T21:40:25.441Z,5.05
2022-11-25T21:42:53.649Z,5.03
2022-11-25T21:45:21.870Z,5.03
2022-11-25T21:47:50.439Z,5.02
2022-11-25T21:50:20.486Z,5.01
2022-11-25T21:52:48.709Z,4.99
2022-11-25T21:55:17.554Z,5.01
2022-11-25T21:57:45.927Z,5.00
2022-11-25T22:00:21.155Z,4.99
2022-11-25T22:02:49.649Z,4.98
2022-11-25T22:05:25.598Z,4.97
2022-11-25T22:07:55.066Z,4.99
2022-11-25T22:10:24.006Z,4.99
2022-11-25T22:12:52.188Z,5.00
2022-11-25T22:15:21.716Z,5.02
2022-11-25T22:17:50.189Z,5.02
2022-11-25T22:20:27.026Z,5.04
2022-11-25T22:22:55.306Z,5.03
2022-11-25T22:25:23.583Z,5.05
2022-11-25T22:27:51.752Z,5.04
2022-11-25T22:30:21.719Z,5.04
2022-11-25T22:32:55.749Z,5.03
2022-11-25T22:35:25.344Z,5.00
2022-11-25T22:37:55.402Z,4.96
2022-11-25T22:40:23.969Z,4.94
2022-11-25T22:42:52.704Z,4.90
2022-11-25T22:45:25.073Z,4.85
2022-11-25T22:47:53.360Z,4.81
2022-11-25T22:50:23.404Z,4.79
2022-11-25T22:52:53.467Z,4.78
2022-11-25T22:55:26.351Z,4.81
2022-11-25T22:57:55.501Z,4.83
2022-11-25T23:00:24.595Z,4.78
2022-11-25T23:02:53.463Z,4.78
2022-11-25T23:05:28.970Z,4.80
2022-11-25T23:08:01.684Z,4.83
2022-11-25T23:10:30.984Z,4.84
2022-11-25T23:12:59.185Z,4.83
2022-11-25T23:15:27.450Z,4.82
2022-11-25T23:17:56.338Z,4.80
2022-11-25T23:20:25.887Z,4.82
2022-11-25T23:22:54.142Z,4.85
2022-11-25T23:25:23.871Z,4.84
2022-11-25T23:27:52.094Z,4.84
2022-11-25T23:30:21.371Z,4.84
2022-11-25T23:32:50.418Z,4.84
2022-11-25T23:35:19.588Z,4.81
2022-11-25T23:37:49.867Z,4.80
2022-11-25T23:40:19.649Z,4.82
2022-11-25T23:42:49.429Z,4.82
2022-11-25T23:45:18.479Z,4.82
2022-11-25T23:47:47.400Z,4.83
2022-11-25T23:50:23.944Z,4.81
2022-11-25T23:52:52.222Z,4.78
2022-11-25T23:55:26.343Z,4.74
2022-11-25T23:57:55.996Z,4.67
